createdAt,value
2023-02-12T00:02:35.547Z,22.27
2023-02-12T00:07:37.867Z,20.52
2023-02-12T00:12:40.022Z,21.38
2023-02-12T00:17:42.312Z,20.50
2023-02-12T00:22:44.512Z,18.70
2023-02-12T00:27:46.720Z,16.98
2023-02-12T00:32:48.923Z,16.13
2023-02-12T00:37:51.364Z,19.42
2023-02-12T00:42:53.875Z,15.88
2023-02-12T00:47:56.071Z,14.95
2023-02-12T00:52:58.206Z,15.45
2023-02-12T00:58:00.669Z,14.65
2023-02-12T01:03:04.202Z,14.95
2023-02-12T01:08:07.047Z,13.68
2023-02-12T01:13:12.770Z,14.10
2023-02-12T01:18:16.594Z,13.85
2023-02-12T01:23:18.779Z,13.45
2023-02-12T01:28:20.902Z,13.32
2023-02-12T01:33:23.096Z,12.25
2023-02-12T01:38:25.212Z,14.43
2023-02-12T01:43:27.382Z,12.27
2023-02-12T01:48:36.341Z,13.73
2023-02-12T01:53:48.950Z,12.90
2023-02-12T01:58:53.286Z,12.50
2023-02-12T02:04:00.282Z,12.05
2023-02-12T02:09:03.709Z,12.60
2023-02-12T02:14:24.561Z,12.25
2023-02-12T02:25:06.400Z,11.70
2023-02-12T02:30:23.221Z,13.63
2023-02-12T02:35:28.124Z,14.43
2023-02-12T02:40:57.529Z,15.05
2023-02-12T02:46:33.059Z,14.68
2023-02-12T02:51:42.923Z,13.70
2023-02-12T02:56:48.380Z,14.95
2023-02-12T03:01:53.209Z,13.18
2023-02-12T03:07:01.557Z,14.38
2023-02-12T03:12:15.712Z,12.73
2023-02-12T03:17:25.244Z,10.88
2023-02-12T03:22:39.050Z,10.97
2023-02-12T03:27:46.870Z,11.75
2023-02-12T03:33:17.503Z,13.38
2023-02-12T03:38:36.180Z,11.30
2023-02-12T03:44:04.857Z,12.77
2023-02-12T03:49:19.526Z,14.18
2023-02-12T03:54:23.211Z,15.82
2023-02-12T03:59:26.056Z,16.10
2023-02-12T04:04:28.890Z,17.65
2023-02-12T04:09:32.606Z,18.70
2023-02-12T04:15:07.039Z,17.23
2023-02-12T04:20:27.584Z,18.55
2023-02-12T04:25:41.395Z,20.00
2023-02-12T04:30:54.197Z,21.35
2023-02-12T04:36:21.356Z,21.95
2023-02-12T04:41:24.253Z,22.42
2023-02-12T04:46:26.438Z,24.52
2023-02-12T04:51:28.734Z,21.75
2023-02-12T04:56:30.882Z,18.75
2023-02-12T05:01:37.333Z,20.45
2023-02-12T05:06:40.279Z,17.40
2023-02-12T05:11:42.632Z,16.63
2023-02-12T05:16:44.742Z,17.23
2023-02-12T05:21:46.832Z,16.40
2023-02-12T05:26:49.721Z,15.68
2023-02-12T05:31:51.968Z,16.02
2023-02-12T05:36:54.201Z,15.75
2023-02-12T05:41:56.346Z,15.18
2023-02-12T05:46:58.452Z,14.90
2023-02-12T05:52:00.569Z,14.18
2023-02-12T05:57:02.823Z,13.00
2023-02-12T06:02:04.906Z,13.23
2023-02-12T06:07:07.662Z,16.10
2023-02-12T06:12:09.778Z,17.67
2023-02-12T06:17:11.918Z,14.90
2023-02-12T06:22:14.100Z,15.30
2023-02-12T06:27:16.365Z,12.00
2023-02-12T06:32:18.718Z,11.75
2023-02-12T06:37:20.911Z,12.82
2023-02-12T06:42:23.174Z,14.60
2023-02-12T06:47:25.426Z,16.08
2023-02-12T06:52:28.267Z,16.33
2023-02-12T06:57:31.356Z,18.02
2023-02-12T07:02:33.508Z,18.92
2023-02-12T07:07:35.628Z,20.33
2023-02-12T07:12:37.847Z,21.92
2023-02-12T07:17:40.100Z,22.58
2023-02-12T07:22:42.319Z,21.38
2023-02-12T07:27:44.508Z,23.20
2023-02-12T07:32:46.731Z,23.83
2023-02-12T07:37:48.927Z,25.52
2023-02-12T07:42:56.076Z,24.83
2023-02-12T07:47:58.371Z,23.90
2023-02-12T07:53:08.815Z,21.52
2023-02-12T08:03:24.282Z,18.23
2023-02-12T08:08:26.620Z,16.80
2023-02-12T08:13:28.868Z,17.63
2023-02-12T08:18:33.137Z,17.52
2023-02-12T08:23:39.855Z,18.60
2023-02-12T08:28:48.040Z,19.92
2023-02-12T08:33:51.489Z,17.77
2023-02-12T08:38:53.926Z,15.35
2023-02-12T08:43:59.035Z,15.43
2023-02-12T08:49:04.505Z,13.23
2023-02-12T08:54:10.614Z,13.27
2023-02-12T08:59:14.806Z,13.75
2023-02-12T09:04:21.961Z,13.50
2023-02-12T09:09:24.918Z,13.57
2023-02-12T09:14:27.139Z,12.40
2023-02-12T09:19:29.403Z,10.95
2023-02-12T09:24:33.151Z,11.00
2023-02-12T09:29:35.481Z,13.68
2023-02-12T09:34:37.725Z,11.52
2023-02-12T09:39:41.165Z,12.63
2023-02-12T09:45:01.877Z,10.43
2023-02-12T09:55:16.934Z,10.90
2023-02-12T10:00:25.149Z,11.50
2023-02-12T10:05:35.572Z,11.48
2023-02-12T10:11:02.240Z,11.65
2023-02-12T10:16:38.416Z,11.23
2023-02-12T10:21:59.231Z,11.63
2023-02-12T10:32:13.762Z,12.13
2023-02-12T10:37:38.956Z,12.15
2023-02-12T10:42:44.779Z,11.75
2023-02-12T10:47:50.983Z,10.75
2023-02-12T10:53:03.752Z,8.93
2023-02-12T10:58:24.688Z,9.48
2023-02-12T11:03:34.616Z,8.70
2023-02-12T11:08:39.434Z,8.55
2023-02-12T11:13:46.886Z,8.88
2023-02-12T11:18:59.375Z,11.60
2023-02-12T11:24:36.205Z,9.15
2023-02-12T11:29:38.599Z,15.57
2023-02-12T11:34:40.712Z,12.13
2023-02-12T11:39:50.996Z,19.65
2023-02-12T11:44:56.475Z,10.77
2023-02-12T11:50:33.898Z,8.20
2023-02-12T11:55:40.310Z,8.57
2023-02-12T12:00:57.417Z,11.05
2023-02-12T12:06:17.431Z,8.70
2023-02-12T12:11:37.840Z,8.85
2023-02-12T12:22:37.912Z,7.93
2023-02-12T12:28:04.261Z,8.88
2023-02-12T12:33:16.023Z,8.35
2023-02-12T12:38:30.781Z,9.25
2023-02-12T12:44:08.045Z,9.63
2023-02-12T12:49:30.580Z,8.38
2023-02-12T12:55:01.010Z,9.90
2023-02-12T13:00:27.453Z,9.32
2023-02-12T13:05:48.555Z,9.07
2023-02-12T13:11:11.159Z,9.05
2023-02-12T13:16:37.913Z,8.88
2023-02-12T13:21:40.277Z,8.15
2023-02-12T13:26:59.554Z,6.72
2023-02-12T13:32:31.039Z,9.52
2023-02-12T13:37:40.416Z,7.93
2023-02-12T13:42:48.250Z,6.70
2023-02-12T13:47:53.546Z,7.55
2023-02-12T13:53:19.384Z,7.40
2023-02-12T13:58:54.374Z,5.85
2023-02-12T14:03:56.585Z,4.30
2023-02-12T14:09:11.531Z,7.18
2023-02-12T14:14:14.186Z,6.25
2023-02-12T14:19:53.622Z,6.45
2023-02-12T14:25:18.181Z,5.22
2023-02-12T14:30:40.166Z,7.00
2023-02-12T14:35:44.465Z,5.38
2023-02-12T14:40:54.290Z,6.47
2023-02-12T14:45:59.810Z,7.38
2023-02-12T14:51:03.166Z,6.68
2023-02-12T14:56:09.727Z,5.35
2023-02-12T15:01:13.212Z,6.65
2023-02-12T15:06:22.442Z,5.60
2023-02-12T15:11:33.794Z,5.27
2023-02-12T15:16:46.574Z,5.45
2023-02-12T15:21:51.084Z,5.68
2023-02-12T15:26:59.208Z,5.82
2023-02-12T15:32:06.215Z,6.22
2023-02-12T15:37:10.048Z,8.70
2023-02-12T15:42:31.922Z,6.43
2023-02-12T15:47:35.042Z,5.97
2023-02-12T15:52:41.641Z,5.97
2023-02-12T15:57:56.649Z,7.10
2023-02-12T16:02:59.082Z,6.43
2023-02-12T16:08:01.941Z,10.93
2023-02-12T16:13:05.499Z,7.47
2023-02-12T16:18:22.714Z,7.03
2023-02-12T16:23:25.108Z,6.90
2023-02-12T16:28:32.516Z,9.25
2023-02-12T16:33:40.802Z,10.35
2023-02-12T16:38:48.857Z,8.98
2023-02-12T16:44:03.224Z,9.20
2023-02-12T16:49:06.818Z,11.32
2023-02-12T16:54:30.879Z,10.57
2023-02-12T16:59:33.564Z,9.90
2023-02-12T17:04:35.817Z,11.35
2023-02-12T17:09:38.153Z,9.80
2023-02-12T17:14:40.636Z,9.65
2023-02-12T17:19:42.884Z,9.57
2023-02-12T17:24:49.753Z,11.68
2023-02-12T17:29:51.942Z,10.02
2023-02-12T17:34:54.205Z,10.35
2023-02-12T17:39:56.650Z,10.57
2023-02-12T17:44:58.810Z,12.57
2023-02-12T17:50:02.839Z,10.60
2023-02-12T17:55:05.849Z,11.15
2023-02-12T18:00:11.643Z,13.13
2023-02-12T18:05:13.792Z,16.55
2023-02-12T18:10:16.191Z,16.63
2023-02-12T18:15:18.422Z,18.80
2023-02-12T18:20:20.851Z,17.08
2023-02-12T18:25:23.085Z,14.82
2023-02-12T18:30:25.402Z,15.70
2023-02-12T18:35:27.750Z,15.57
2023-02-12T18:40:30.071Z,18.20
2023-02-12T18:45:32.248Z,11.70
2023-02-12T18:50:34.446Z,13.23
2023-02-12T18:55:41.183Z,12.77
2023-02-12T19:00:43.407Z,14.57
2023-02-12T19:05:45.647Z,14.52
2023-02-12T19:10:49.909Z,13.70
2023-02-12T19:15:52.222Z,16.83
2023-02-12T19:20:54.495Z,18.10
2023-02-12T19:25:56.846Z,14.38
2023-02-12T19:31:00.341Z,14.13
2023-02-12T19:36:03.017Z,14.85
2023-02-12T19:41:11.231Z,17.95
2023-02-12T19:46:16.405Z,15.05
2023-02-12T19:51:21.296Z,16.13
2023-02-12T19:56:23.579Z,18.30
2023-02-12T20:01:26.911Z,16.13
2023-02-12T20:06:34.977Z,16.85
2023-02-12T20:11:40.631Z,15.50
2023-02-12T20:16:46.905Z,16.15
2023-02-12T20:21:54.520Z,14.25
2023-02-12T20:26:58.458Z,14.57
2023-02-12T20:32:00.813Z,14.40
2023-02-12T20:37:06.355Z,13.57
2023-02-12T20:42:08.510Z,13.70
2023-02-12T20:47:10.824Z,16.38
2023-02-12T20:52:13.002Z,15.70
2023-02-12T20:57:15.792Z,14.02
2023-02-12T21:02:18.972Z,13.55
2023-02-12T21:07:21.239Z,13.35
2023-02-12T21:12:23.390Z,21.52
2023-02-12T21:17:25.750Z,19.40
2023-02-12T21:22:28.002Z,17.63
2023-02-12T21:27:30.310Z,18.98
2023-02-12T21:32:32.554Z,23.77
2023-02-12T21:37:34.793Z,31.85
2023-02-12T21:42:36.922Z,38.03
2023-02-12T21:47:39.185Z,33.05
2023-02-12T21:52:41.504Z,31.73
2023-02-12T21:57:43.749Z,20.90
2023-02-12T22:02:45.942Z,21.08
2023-02-12T22:07:51.983Z,16.80
2023-02-12T22:12:54.627Z,22.73
2023-02-12T22:17:56.749Z,17.50
2023-02-12T22:22:58.874Z,13.68
2023-02-12T22:28:01.747Z,13.02
2023-02-12T22:33:04.032Z,14.07
2023-02-12T22:38:06.365Z,14.35
2023-02-12T22:43:08.484Z,18.40
2023-02-12T22:48:10.674Z,23.35
2023-02-12T22:53:12.839Z,25.83
2023-02-12T22:58:16.106Z,25.20
2023-02-12T23:03:18.326Z,18.20
2023-02-12T23:08:20.490Z,23.52
2023-02-12T23:13:29.628Z,18.35
2023-02-12T23:18:32.697Z,17.75
2023-02-12T23:23:35.108Z,17.75
2023-02-12T23:28:37.286Z,16.70
2023-02-12T23:33:39.546Z,15.90
2023-02-12T23:38:41.885Z,17.00
2023-02-12T23:43:44.121Z,15.23
2023-02-12T23:48:46.292Z,15.98
2023-02-12T23:53:48.557Z,15.63
2023-02-12T23:58:50.979Z,15.63
